createdAt,value
2023-03-11T00:00:46.369Z,9.94
2023-03-11T00:03:15.678Z,9.88
2023-03-11T00:05:44.657Z,9.84
2023-03-11T00:08:17.274Z,9.87
2023-03-11T00:10:45.787Z,9.89
2023-03-11T00:13:14.813Z,9.89
2023-03-11T00:15:43.711Z,9.84
2023-03-11T00:18:10.782Z,9.79
2023-03-11T00:20:39.910Z,9.78
2023-03-11T00:23:08.373Z,9.76
2023-03-11T00:25:38.070Z,9.76
2023-03-11T00:28:06.154Z,9.71
2023-03-11T00:30:33.911Z,9.74
2023-03-11T00:33:00.973Z,9.75
2023-03-11T00:35:32.032Z,9.75
2023-03-11T00:38:01.173Z,9.74
2023-03-11T00:40:30.140Z,9.72
2023-03-11T00:42:57.576Z,9.69
2023-03-11T00:45:25.172Z,9.61
2023-03-11T00:47:52.660Z,9.58
2023-03-11T00:50:25.406Z,9.58
2023-03-11T00:52:52.352Z,9.57
2023-03-11T00:55:23.092Z,9.59
2023-03-11T00:57:53.215Z,9.59
2023-03-11T01:00:21.750Z,9.57
2023-03-11T01:02:48.383Z,9.56
2023-03-11T01:05:15.374Z,9.56
2023-03-11T01:07:42.079Z,9.56
2023-03-11T01:10:09.784Z,9.59
2023-03-11T01:12:36.471Z,9.62
2023-03-11T01:15:04.168Z,9.63
2023-03-11T01:17:30.859Z,9.62
2023-03-11T01:19:57.505Z,9.60
2023-03-11T01:22:24.346Z,9.60
2023-03-11T01:24:52.676Z,9.56
2023-03-11T01:27:19.315Z,9.55
2023-03-11T01:29:45.859Z,9.52
2023-03-11T01:32:12.478Z,9.50
2023-03-11T01:34:39.082Z,9.52
2023-03-11T01:37:05.725Z,9.51
2023-03-11T01:39:32.525Z,9.55
2023-03-11T01:42:03.586Z,9.52
2023-03-11T01:44:30.291Z,9.45
2023-03-11T01:46:59.454Z,9.46
2023-03-11T01:49:26.724Z,9.45
2023-03-11T01:52:03.490Z,9.43
2023-03-11T01:54:37.705Z,9.40
2023-03-11T01:57:11.479Z,9.44
2023-03-11T01:59:41.906Z,9.48
2023-03-11T02:02:32.491Z,9.42
2023-03-11T02:05:03.188Z,9.40
2023-03-11T02:07:30.116Z,9.37
2023-03-11T02:10:02.010Z,9.42
2023-03-11T02:12:34.074Z,9.39
2023-03-11T02:15:01.213Z,9.41
2023-03-11T02:17:27.779Z,9.41
2023-03-11T02:19:59.481Z,9.42
2023-03-11T02:22:27.161Z,9.44
2023-03-11T02:25:20.828Z,9.45
2023-03-11T02:27:52.591Z,9.41
2023-03-11T02:30:21.536Z,9.37
2023-03-11T02:32:49.470Z,9.41
2023-03-11T02:35:16.510Z,9.38
2023-03-11T02:37:49.212Z,9.42
2023-03-11T02:40:41.712Z,9.41
2023-03-11T02:43:13.558Z,9.43
2023-03-11T02:45:43.799Z,9.39
2023-03-11T02:48:11.747Z,9.40
2023-03-11T02:50:39.622Z,9.34
2023-03-11T02:53:07.345Z,9.37
2023-03-11T02:55:34.131Z,9.33
2023-03-11T02:58:00.764Z,9.31
2023-03-11T03:00:27.802Z,9.26
2023-03-11T03:02:54.470Z,9.24
2023-03-11T03:05:21.919Z,9.19
2023-03-11T03:07:50.146Z,9.15
2023-03-11T03:10:21.016Z,9.12
2023-03-11T03:12:50.097Z,9.07
2023-03-11T03:15:19.649Z,8.96
2023-03-11T03:17:47.442Z,9.00
2023-03-11T03:20:14.667Z,8.99
2023-03-11T03:22:42.352Z,8.97
2023-03-11T03:25:12.054Z,8.91
2023-03-11T03:27:39.278Z,8.83
2023-03-11T03:30:07.420Z,8.82
2023-03-11T03:32:34.166Z,8.74
2023-03-11T03:35:01.355Z,8.68
2023-03-11T03:37:29.002Z,8.64
2023-03-11T03:39:55.562Z,8.52
2023-03-11T03:42:22.445Z,8.50
2023-03-11T03:44:48.984Z,8.48
2023-03-11T03:47:15.500Z,8.45
2023-03-11T03:49:42.057Z,8.36
2023-03-11T03:52:09.296Z,8.40
2023-03-11T03:54:36.661Z,8.44
2023-03-11T03:57:04.304Z,8.46
2023-03-11T03:59:30.976Z,8.52
2023-03-11T04:01:58.105Z,8.48
2023-03-11T04:04:26.157Z,8.47
2023-03-11T04:06:52.940Z,8.43
2023-03-11T04:09:21.166Z,8.44
2023-03-11T04:11:47.914Z,8.39
2023-03-11T04:14:14.503Z,8.31
2023-03-11T04:16:41.451Z,8.21
2023-03-11T04:19:08.517Z,8.09
2023-03-11T04:21:35.105Z,8.09
2023-03-11T04:24:04.408Z,8.06
2023-03-11T04:26:31.004Z,8.05
2023-03-11T04:28:57.787Z,7.98
2023-03-11T04:31:24.447Z,7.93
2023-03-11T04:33:51.179Z,7.86
2023-03-11T04:36:17.809Z,7.86
2023-03-11T04:38:44.381Z,7.76
2023-03-11T04:41:10.920Z,7.75
2023-03-11T04:43:37.572Z,7.65
2023-03-11T04:46:04.640Z,7.68
2023-03-11T04:48:31.323Z,7.65
2023-03-11T04:50:59.276Z,7.74
2023-03-11T04:53:25.989Z,7.76
2023-03-11T04:55:54.330Z,7.77
2023-03-11T04:58:21.241Z,7.77
2023-03-11T05:00:47.805Z,7.79
2023-03-11T05:03:15.041Z,7.80
2023-03-11T05:05:41.705Z,7.88
2023-03-11T05:08:13.924Z,7.86
2023-03-11T05:10:41.313Z,7.87
2023-03-11T05:13:08.570Z,7.86
2023-03-11T05:15:35.124Z,7.83
2023-03-11T05:18:05.022Z,7.88
2023-03-11T05:20:31.535Z,7.84
2023-03-11T05:22:58.445Z,7.83
2023-03-11T05:25:25.565Z,7.84
2023-03-11T05:27:52.223Z,7.86
2023-03-11T05:30:21.845Z,7.85
2023-03-11T05:32:48.627Z,7.84
2023-03-11T05:35:15.293Z,7.93
2023-03-11T05:37:41.919Z,7.96
2023-03-11T05:40:10.995Z,8.01
2023-03-11T05:42:37.689Z,8.13
2023-03-11T05:45:04.666Z,8.36
2023-03-11T05:47:31.232Z,8.49
2023-03-11T05:49:57.829Z,8.53
2023-03-11T05:52:25.520Z,8.72
2023-03-11T05:54:52.455Z,8.65
2023-03-11T05:57:19.679Z,8.67
2023-03-11T05:59:46.499Z,8.66
2023-03-11T06:02:14.116Z,8.76
2023-03-11T06:04:41.539Z,8.96
2023-03-11T06:07:08.199Z,9.22
2023-03-11T06:09:34.790Z,9.80
2023-03-11T06:12:01.379Z,10.31
2023-03-11T06:14:27.912Z,10.64
2023-03-11T06:16:54.462Z,10.57
2023-03-11T06:19:24.006Z,10.30
2023-03-11T06:21:50.663Z,10.14
2023-03-11T06:24:17.326Z,10.03
2023-03-11T06:26:44.943Z,9.81
2023-03-11T06:29:16.070Z,9.68
2023-03-11T06:31:42.705Z,9.51
2023-03-11T06:34:11.202Z,9.36
2023-03-11T06:36:37.990Z,9.18
2023-03-11T06:39:08.894Z,9.14
2023-03-11T06:41:39.657Z,9.09
2023-03-11T06:44:07.545Z,9.01
2023-03-11T06:46:37.426Z,9.06
2023-03-11T06:49:04.308Z,8.98
2023-03-11T06:51:31.133Z,9.09
2023-03-11T06:53:57.899Z,9.23
2023-03-11T06:56:24.856Z,9.46
2023-03-11T06:58:51.694Z,9.44
2023-03-11T07:01:21.296Z,9.63
2023-03-11T07:03:49.081Z,9.75
2023-03-11T07:06:18.531Z,9.52
2023-03-11T07:08:47.497Z,9.28
2023-03-11T07:11:17.726Z,8.97
2023-03-11T07:13:45.170Z,8.78
2023-03-11T07:16:17.152Z,8.50
2023-03-11T07:18:46.117Z,8.43
2023-03-11T07:21:15.750Z,8.42
2023-03-11T07:23:43.051Z,8.40
2023-03-11T07:26:14.240Z,8.47
2023-03-11T07:28:41.302Z,8.55
2023-03-11T07:31:16.724Z,8.59
2023-03-11T07:33:43.660Z,8.55
2023-03-11T07:36:13.228Z,8.53
2023-03-11T07:38:41.810Z,8.53
2023-03-11T07:41:12.761Z,8.38
2023-03-11T07:43:40.810Z,8.41
2023-03-11T07:46:10.665Z,8.20
2023-03-11T07:48:40.006Z,8.15
2023-03-11T07:51:10.409Z,8.15
2023-03-11T07:53:37.203Z,8.11
2023-03-11T07:56:07.758Z,8.10
2023-03-11T07:58:34.376Z,7.98
2023-03-11T08:01:13.220Z,8.01
2023-03-11T08:03:40.986Z,8.08
2023-03-11T08:06:15.836Z,7.89
2023-03-11T08:08:45.342Z,7.96
2023-03-11T08:11:15.934Z,7.74
2023-03-11T08:13:44.059Z,7.79
2023-03-11T08:16:13.698Z,7.76
2023-03-11T08:18:40.430Z,7.68
2023-03-11T08:21:09.232Z,7.67
2023-03-11T08:23:36.023Z,7.70
2023-03-11T08:26:13.777Z,7.73
2023-03-11T08:28:40.838Z,7.73
2023-03-11T08:31:19.079Z,7.75
2023-03-11T08:33:50.202Z,7.83
2023-03-11T08:36:17.656Z,7.87
2023-03-11T08:38:44.575Z,7.84
2023-03-11T08:41:11.287Z,7.79
2023-03-11T08:43:37.845Z,7.70
2023-03-11T08:46:05.772Z,7.55
2023-03-11T08:48:32.916Z,7.43
2023-03-11T08:50:59.922Z,7.19
2023-03-11T08:53:26.515Z,7.21
2023-03-11T08:55:53.306Z,7.23
2023-03-11T08:58:20.493Z,7.29
2023-03-11T09:00:47.819Z,7.36
2023-03-11T09:03:14.348Z,7.64
2023-03-11T09:05:42.922Z,7.92
2023-03-11T09:08:11.983Z,8.13
2023-03-11T09:10:38.507Z,8.29
2023-03-11T09:13:05.114Z,8.26
2023-03-11T09:15:31.979Z,8.23
2023-03-11T09:17:58.574Z,8.02
2023-03-11T09:20:25.148Z,7.95
2023-03-11T09:22:51.694Z,7.96
2023-03-11T09:25:18.288Z,7.91
2023-03-11T09:27:45.238Z,7.80
2023-03-11T09:30:14.866Z,7.59
2023-03-11T09:32:41.762Z,7.44
2023-03-11T09:35:09.234Z,7.28
2023-03-11T09:37:36.024Z,7.44
2023-03-11T09:40:02.716Z,7.76
2023-03-11T09:42:55.148Z,7.84
2023-03-11T09:45:27.640Z,7.95
2023-03-11T09:48:02.773Z,7.92
2023-03-11T09:50:45.290Z,8.17
2023-03-11T09:53:29.153Z,8.13
2023-03-11T09:55:59.662Z,8.10
2023-03-11T09:58:52.546Z,7.89
2023-03-11T10:01:35.961Z,7.81
2023-03-11T10:04:07.514Z,7.60
2023-03-11T10:06:34.289Z,7.45
2023-03-11T10:09:39.572Z,7.41
2023-03-11T10:12:09.146Z,7.45
2023-03-11T10:14:54.284Z,7.52
2023-03-11T10:17:44.903Z,7.32
2023-03-11T10:20:12.929Z,7.56
2023-03-11T10:23:16.764Z,7.44
2023-03-11T10:26:17.801Z,7.52
2023-03-11T10:28:54.392Z,7.37
2023-03-11T10:31:30.429Z,7.39
2023-03-11T10:33:59.123Z,7.20
2023-03-11T10:36:39.522Z,7.33
2023-03-11T10:39:06.713Z,7.24
2023-03-11T10:41:43.083Z,7.49
2023-03-11T10:44:22.583Z,7.85
2023-03-11T10:46:49.330Z,8.22
2023-03-11T10:49:18.068Z,8.17
2023-03-11T10:51:47.329Z,8.13
2023-03-11T10:54:22.950Z,8.04
2023-03-11T10:56:57.341Z,8.01
2023-03-11T10:59:45.405Z,7.85
2023-03-11T11:02:27.025Z,8.04
2023-03-11T11:05:26.929Z,9.79
2023-03-11T11:08:15.364Z,14.63
2023-03-11T11:10:57.043Z,15.44
2023-03-11T11:13:26.062Z,13.52
2023-03-11T11:16:18.188Z,16.51
2023-03-11T11:18:49.512Z,18.17
2023-03-11T11:21:28.967Z,15.79
2023-03-11T11:24:09.834Z,17.29
2023-03-11T11:26:38.564Z,17.31
2023-03-11T11:29:26.741Z,16.97
2023-03-11T11:32:10.296Z,18.55
2023-03-11T11:34:36.882Z,18.40
2023-03-11T11:37:06.139Z,19.50
2023-03-11T11:39:45.021Z,20.84
2023-03-11T11:42:13.775Z,17.18
2023-03-11T11:44:43.294Z,15.13
2023-03-11T11:47:21.694Z,13.73
2023-03-11T11:50:02.040Z,13.32
2023-03-11T11:52:35.958Z,12.83
2023-03-11T11:55:07.842Z,12.59
2023-03-11T11:57:34.792Z,12.05
2023-03-11T12:00:02.343Z,11.47
2023-03-11T12:02:52.277Z,11.20
2023-03-11T12:05:49.210Z,11.00
2023-03-11T12:08:54.558Z,10.80
2023-03-11T12:11:28.692Z,10.53
2023-03-11T12:14:23.846Z,10.47
2023-03-11T12:16:56.188Z,10.09
2023-03-11T12:19:43.092Z,10.12
2023-03-11T12:22:45.791Z,10.21
2023-03-11T12:25:33.934Z,10.34
2023-03-11T12:28:21.774Z,10.46
2023-03-11T12:30:59.913Z,10.05
2023-03-11T12:33:29.448Z,10.16
2023-03-11T12:35:59.319Z,9.98
2023-03-11T12:38:49.192Z,9.99
2023-03-11T12:41:15.774Z,9.93
2023-03-11T12:43:42.658Z,10.05
2023-03-11T12:46:11.137Z,9.54
2023-03-11T12:48:43.436Z,9.68
2023-03-11T12:51:31.554Z,9.94
2023-03-11T12:53:59.148Z,9.99
2023-03-11T12:56:44.342Z,9.83
2023-03-11T12:59:39.284Z,10.04
2023-03-11T13:02:49.968Z,9.83
2023-03-11T13:05:20.818Z,9.65
2023-03-11T13:07:50.217Z,9.73
2023-03-11T13:10:28.953Z,9.45
2023-03-11T13:12:55.658Z,9.87
2023-03-11T13:15:22.378Z,10.07
2023-03-11T13:18:04.077Z,10.15
2023-03-11T13:20:39.519Z,10.34
2023-03-11T13:23:09.186Z,10.10
2023-03-11T13:25:40.468Z,9.86
2023-03-11T13:28:16.730Z,9.66
2023-03-11T13:31:05.876Z,9.39
2023-03-11T13:33:44.345Z,9.26
2023-03-11T13:36:30.309Z,9.50
2023-03-11T13:39:11.506Z,9.41
2023-03-11T13:41:43.030Z,9.00
2023-03-11T13:44:38.630Z,9.08
2023-03-11T13:47:15.351Z,9.15
2023-03-11T13:49:49.047Z,9.08
2023-03-11T13:52:29.544Z,9.07
2023-03-11T13:55:34.008Z,8.74
2023-03-11T13:58:00.663Z,8.78
2023-03-11T14:00:31.071Z,8.66
2023-03-11T14:03:01.378Z,8.36
2023-03-11T14:05:33.436Z,8.30
2023-03-11T14:08:24.053Z,8.34
2023-03-11T14:11:01.697Z,8.42
2023-03-11T14:13:38.114Z,8.73
2023-03-11T14:16:16.671Z,8.70
2023-03-11T14:18:48.527Z,8.66
2023-03-11T14:21:18.306Z,8.70
2023-03-11T14:23:47.493Z,8.84
2023-03-11T14:26:17.666Z,8.76
2023-03-11T14:28:47.763Z,8.53
2023-03-11T14:31:32.943Z,8.70
2023-03-11T14:34:19.685Z,8.62
2023-03-11T14:36:47.261Z,8.60
2023-03-11T14:39:25.963Z,8.71
2023-03-11T14:42:11.218Z,8.69
2023-03-11T14:44:44.839Z,8.64
2023-03-11T14:47:21.276Z,8.62
2023-03-11T14:49:50.380Z,8.68
2023-03-11T14:52:53.314Z,8.64
2023-03-11T14:55:28.702Z,8.58
2023-03-11T14:58:38.933Z,8.50
2023-03-11T15:01:09.360Z,8.52
2023-03-11T15:03:41.329Z,8.54
2023-03-11T15:06:25.416Z,8.35
2023-03-11T15:09:24.308Z,8.38
2023-03-11T15:11:53.592Z,8.43
2023-03-11T15:14:25.090Z,8.27
2023-03-11T15:16:53.093Z,8.37
2023-03-11T15:19:31.770Z,8.33
2023-03-11T15:22:05.781Z,8.30
2023-03-11T15:24:34.354Z,8.20
2023-03-11T15:27:20.176Z,8.15
2023-03-11T15:29:53.185Z,8.04
2023-03-11T15:32:32.035Z,7.96
2023-03-11T15:35:13.293Z,7.93
2023-03-11T15:37:41.546Z,7.87
2023-03-11T15:40:13.837Z,7.81
2023-03-11T15:42:40.458Z,7.68
2023-03-11T15:45:18.839Z,7.62
2023-03-11T15:47:49.905Z,7.51
2023-03-11T15:50:25.220Z,7.54
2023-03-11T15:52:54.719Z,7.56
2023-03-11T15:55:24.817Z,7.51
2023-03-11T15:57:56.475Z,7.40
2023-03-11T16:00:24.129Z,7.41
2023-03-11T16:02:51.230Z,7.35
2023-03-11T16:05:23.387Z,7.38
2023-03-11T16:07:50.321Z,7.43
2023-03-11T16:10:24.333Z,7.30
2023-03-11T16:12:50.909Z,7.28
2023-03-11T16:15:35.504Z,7.28
2023-03-11T16:18:04.902Z,7.19
2023-03-11T16:20:38.083Z,7.24
2023-03-11T16:23:05.209Z,7.22
2023-03-11T16:25:36.240Z,7.20
2023-03-11T16:28:03.453Z,7.14
2023-03-11T16:30:32.374Z,7.13
2023-03-11T16:32:59.256Z,7.11
2023-03-11T16:35:26.700Z,7.13
2023-03-11T16:37:53.582Z,7.10
2023-03-11T16:40:26.340Z,7.03
2023-03-11T16:43:05.789Z,7.04
2023-03-11T16:45:32.458Z,6.99
2023-03-11T16:47:59.007Z,7.01
2023-03-11T16:50:26.175Z,6.93
2023-03-11T16:52:54.351Z,6.93
2023-03-11T16:55:22.070Z,6.99
2023-03-11T16:57:48.592Z,6.93
2023-03-11T17:00:15.912Z,6.90
2023-03-11T17:02:44.554Z,6.83
2023-03-11T17:05:12.878Z,6.69
2023-03-11T17:07:40.457Z,6.79
2023-03-11T17:10:09.022Z,6.77
2023-03-11T17:12:35.958Z,6.75
2023-03-11T17:15:07.107Z,6.72
2023-03-11T17:17:33.936Z,6.73
2023-03-11T17:20:03.746Z,6.69
2023-03-11T17:22:30.428Z,6.67
2023-03-11T17:24:56.928Z,6.69
2023-03-11T17:27:23.613Z,6.68
2023-03-11T17:29:50.312Z,6.66
2023-03-11T17:32:17.598Z,6.62
2023-03-11T17:34:44.550Z,6.61
2023-03-11T17:37:11.095Z,6.59
2023-03-11T17:39:37.783Z,6.59
2023-03-11T17:42:04.610Z,6.52
2023-03-11T17:44:44.508Z,6.45
2023-03-11T17:47:15.396Z,6.41
2023-03-11T17:49:42.000Z,6.47
2023-03-11T17:52:08.542Z,6.41
2023-03-11T17:54:35.628Z,6.41
2023-03-11T17:57:02.149Z,6.34
2023-03-11T17:59:28.651Z,6.41
2023-03-11T18:01:55.367Z,6.25
2023-03-11T18:04:22.018Z,6.31
2023-03-11T18:06:48.590Z,6.29
2023-03-11T18:09:15.151Z,6.30
2023-03-11T18:11:41.733Z,6.33
2023-03-11T18:14:08.378Z,6.27
2023-03-11T18:16:34.972Z,6.27
2023-03-11T18:19:01.482Z,6.35
2023-03-11T18:21:30.184Z,6.23
2023-03-11T18:23:59.287Z,6.21
2023-03-11T18:26:27.264Z,6.21
2023-03-11T18:28:58.310Z,6.25
2023-03-11T18:31:26.167Z,6.20
2023-03-11T18:33:58.466Z,6.19
2023-03-11T18:36:30.940Z,6.19
2023-03-11T18:38:59.457Z,6.14
2023-03-11T18:41:27.909Z,6.08
2023-03-11T18:43:58.417Z,6.07
2023-03-11T18:46:27.206Z,5.85
2023-03-11T18:48:55.138Z,5.76
2023-03-11T18:51:21.880Z,5.72
2023-03-11T18:53:51.438Z,5.66
2023-03-11T18:56:18.867Z,5.66
2023-03-11T18:58:45.462Z,5.55
2023-03-11T19:01:15.649Z,5.56
2023-03-11T19:03:44.183Z,5.70
2023-03-11T19:06:12.910Z,5.64
2023-03-11T19:08:40.230Z,5.67
2023-03-11T19:11:08.225Z,5.71
2023-03-11T19:13:46.157Z,5.74
2023-03-11T19:16:15.848Z,5.78
2023-03-11T19:18:42.694Z,5.74
2023-03-11T19:21:12.122Z,5.68
2023-03-11T19:23:38.688Z,5.59
2023-03-11T19:26:05.326Z,5.57
2023-03-11T19:28:31.960Z,5.58
2023-03-11T19:30:59.464Z,5.49
2023-03-11T19:33:26.926Z,5.53
2023-03-11T19:36:02.119Z,5.62
2023-03-11T19:38:29.871Z,5.78
2023-03-11T19:41:08.539Z,5.80
2023-03-11T19:43:35.745Z,5.80
2023-03-11T19:46:04.229Z,5.91
2023-03-11T19:48:31.458Z,6.02
2023-03-11T19:50:58.077Z,6.04
2023-03-11T19:53:25.328Z,6.07
2023-03-11T19:55:53.791Z,6.11
2023-03-11T19:58:21.336Z,6.16
2023-03-11T20:00:47.839Z,6.14
2023-03-11T20:03:15.433Z,6.14
2023-03-11T20:05:44.161Z,6.18
2023-03-11T20:08:12.822Z,6.18
2023-03-11T20:10:42.229Z,6.15
2023-03-11T20:13:09.793Z,6.16
2023-03-11T20:15:37.246Z,6.10
2023-03-11T20:18:04.437Z,6.05
2023-03-11T20:20:31.923Z,6.05
2023-03-11T20:22:58.858Z,6.08
2023-03-11T20:25:26.767Z,6.12
2023-03-11T20:27:53.558Z,6.02
2023-03-11T20:30:20.495Z,6.04
2023-03-11T20:32:48.186Z,6.03
2023-03-11T20:35:15.810Z,6.02
2023-03-11T20:37:43.656Z,6.02
2023-03-11T20:40:13.003Z,5.95
2023-03-11T20:42:40.538Z,5.93
2023-03-11T20:45:07.578Z,6.01
2023-03-11T20:47:34.305Z,6.04
2023-03-11T20:50:00.919Z,6.05
2023-03-11T20:52:27.531Z,6.12
2023-03-11T20:54:54.097Z,6.08
2023-03-11T20:57:20.824Z,6.07
2023-03-11T20:59:50.053Z,6.15
2023-03-11T21:02:16.883Z,6.16
2023-03-11T21:04:43.559Z,6.12
2023-03-11T21:07:10.811Z,6.09
2023-03-11T21:09:37.323Z,6.10
2023-03-11T21:12:04.344Z,5.95
2023-03-11T21:14:31.162Z,5.93
2023-03-11T21:16:57.927Z,5.96
2023-03-11T21:19:24.581Z,6.00
2023-03-11T21:21:53.149Z,5.95
2023-03-11T21:24:19.745Z,6.01
2023-03-11T21:26:46.460Z,6.04
2023-03-11T21:29:13.141Z,6.08
2023-03-11T21:31:39.975Z,6.07
2023-03-11T21:34:10.965Z,6.10
2023-03-11T21:36:37.915Z,5.97
2023-03-11T21:39:05.981Z,5.89
2023-03-11T21:41:32.577Z,5.75
2023-03-11T21:43:59.588Z,5.78
2023-03-11T21:46:29.784Z,5.85
2023-03-11T21:48:57.054Z,5.81
2023-03-11T21:51:24.594Z,5.70
2023-03-11T21:53:51.499Z,5.64
2023-03-11T21:56:18.198Z,5.57
2023-03-11T21:58:47.723Z,5.39
2023-03-11T22:01:14.500Z,5.29
2023-03-11T22:03:41.556Z,5.18
2023-03-11T22:06:13.649Z,5.15
2023-03-11T22:08:40.624Z,5.22
2023-03-11T22:11:09.518Z,5.17
2023-03-11T22:13:36.220Z,5.16
2023-03-11T22:16:05.092Z,5.15
2023-03-11T22:18:32.356Z,5.11
2023-03-11T22:20:59.677Z,4.96
2023-03-11T22:23:27.117Z,5.03
2023-03-11T22:25:54.190Z,5.05
2023-03-11T22:28:20.741Z,5.00
2023-03-11T22:30:47.265Z,5.02
2023-03-11T22:33:14.030Z,5.06
2023-03-11T22:35:40.777Z,4.96
2023-03-11T22:38:07.366Z,4.92
2023-03-11T22:40:34.792Z,4.91
2023-03-11T22:43:01.601Z,4.87
2023-03-11T22:45:28.256Z,4.70
2023-03-11T22:47:54.814Z,4.82
2023-03-11T22:50:21.437Z,4.62
2023-03-11T22:52:48.057Z,4.70
2023-03-11T22:55:14.651Z,4.73
2023-03-11T22:57:41.272Z,4.71
2023-03-11T23:00:21.480Z,4.70
2023-03-11T23:02:52.168Z,4.65
2023-03-11T23:05:19.022Z,4.68
2023-03-11T23:07:45.614Z,4.79
2023-03-11T23:10:13.905Z,4.72
2023-03-11T23:12:41.076Z,4.71
2023-03-11T23:15:15.297Z,4.73
2023-03-11T23:17:42.068Z,4.65
2023-03-11T23:20:13.681Z,4.61
2023-03-11T23:22:41.960Z,4.53
2023-03-11T23:25:12.877Z,4.61
2023-03-11T23:27:39.884Z,4.71
2023-03-11T23:30:07.402Z,4.76
2023-03-11T23:32:34.390Z,4.69
2023-03-11T23:35:01.027Z,4.71
2023-03-11T23:37:27.593Z,4.76
2023-03-11T23:39:54.212Z,4.69
2023-03-11T23:42:25.908Z,4.84
2023-03-11T23:44:54.004Z,4.83
2023-03-11T23:47:20.678Z,4.90
2023-03-11T23:49:47.207Z,4.99
2023-03-11T23:52:13.970Z,4.97
2023-03-11T23:54:40.521Z,4.76
2023-03-11T23:57:07.120Z,4.68
2023-03-11T23:59:33.721Z,4.64
